Bryce Canyon Airport Bryce Canyon US
ICAO: KBCE
IATA: BCE
Category: Medium
Scheduled Services: No

Elevation: 7590 ft
TransAlt. 18000 ft.

Airport Communications:
ASOS:135.475
CEDAR CITY RDO:122.2
CTAF/UNICOM:122.8

KBCE Zoom In..

Runways:

(A) RW 03 length 7395 ft width 75 ft
---- / hdg 33

(B) RW 21 length 7395 ft width 75 ft
---- / hdg 213

Location; KBCE
Day. 30 / Time. 21.53 Zulu
* Altimeter: 30.26
* Temperature: 06° c. 42.8°f.
* Wind from: 160° Speed 09 kn.
Dewpoint: -14° c.
Visibility: 10 Statute Miles.
Clouds: Clear (automated report).

KBCE 302153Z AUTO 16009KT 10SM CLR 06/M14 A3026 RMK AO2 SLP243 T00611139

Going to: --> -->


Wind From 160°
Speed 09 kn.

 
 
jpsmedia worldairports.se 2020   terms of use